Time;durP1;ratioP1;P1;durP2;ratioP2;P2;SDS_P1;SDS_P2;PMS_P1;PMS_P2;Temp;Humidity;BMP_temperature;BMP_pressure;BME280_temperature;BME280_humidity;BME280_pressure;Samples;Min_cycle;Max_cycle;Signal;HPM_P1;HPM_P2
2021/08/25 00:01:06;;;;;;;4.68;3.50;;;12.70;99.90;;;;;;5051779;28;20210;-80
2021/08/25 00:03:32;;;;;;;3.83;2.60;;;12.70;99.90;;;;;;5049729;28;20037;-79
2021/08/25 00:05:57;;;;;;;4.15;2.95;;;12.70;99.90;;;;;;5032747;28;20401;-79
2021/08/25 00:08:23;;;;;;;4.75;3.00;;;12.60;99.90;;;;;;5059196;28;20052;-80
2021/08/25 00:10:49;;;;;;;3.05;2.50;;;12.60;99.90;;;;;;5062788;28;20119;-79
2021/08/25 00:13:14;;;;;;;5.55;2.60;;;12.60;99.90;;;;;;5064978;28;20131;-78
2021/08/25 00:15:42;;;;;;;2.67;1.58;;;12.60;99.90;;;;;;5028065;28;20041;-80
2021/08/25 00:18:08;;;;;;;3.13;2.60;;;12.70;99.90;;;;;;5048584;28;20042;-79
2021/08/25 00:20:35;;;;;;;4.00;2.55;;;12.70;99.90;;;;;;5039200;28;20371;-79
2021/08/25 00:23:01;;;;;;;3.15;2.40;;;12.70;99.90;;;;;;5033985;28;20047;-77
2021/08/25 00:25:27;;;;;;;3.00;1.90;;;12.70;99.90;;;;;;5037743;28;20060;-79
2021/08/25 00:27:53;;;;;;;5.85;3.00;;;12.70;99.90;;;;;;5030602;28;20509;-78
2021/08/25 00:30:19;;;;;;;3.67;1.88;;;12.70;99.90;;;;;;5042078;28;20090;-77
2021/08/25 00:32:45;;;;;;;2.92;2.22;;;12.70;99.90;;;;;;5059284;28;20044;-79
2021/08/25 00:35:12;;;;;;;4.70;2.83;;;12.70;99.90;;;;;;5053714;28;20036;-77
2021/08/25 00:37:38;;;;;;;2.67;2.03;;;12.70;99.90;;;;;;5040305;28;20380;-80
2021/08/25 00:40:04;;;;;;;3.05;2.50;;;12.70;99.90;;;;;;5033572;28;20040;-78
2021/08/25 00:42:30;;;;;;;2.53;1.92;;;12.70;99.90;;;;;;5039311;28;20049;-77
2021/08/25 00:45:04;;;;;;;2.97;2.17;;;12.60;99.90;;;;;;5043727;28;20045;-80
2021/08/25 00:47:35;;;;;;;4.82;2.67;;;12.60;99.90;;;;;;5037493;28;20045;-78
2021/08/25 00:50:01;;;;;;;2.47;1.85;;;12.60;99.90;;;;;;5066948;28;20066;-80
2021/08/25 00:52:26;;;;;;;3.95;3.08;;;12.50;99.90;;;;;;5022054;28;20992;-80
2021/08/25 00:54:53;;;;;;;1.80;1.58;;;12.50;99.90;;;;;;5018304;28;20060;-77
2021/08/25 00:57:19;;;;;;;3.88;2.13;;;12.50;99.90;;;;;;5048739;28;20396;-79
2021/08/25 00:59:45;;;;;;;3.50;2.55;;;12.50;99.90;;;;;;5063650;28;20045;-79
2021/08/25 01:02:35;;;;;;;2.55;2.35;;;12.50;99.90;;;;;;5045662;28;20208;-77
2021/08/25 01:05:02;;;;;;;4.13;2.60;;;12.50;99.90;;;;;;5033427;28;20492;-79
2021/08/25 01:07:31;;;;;;;3.40;2.80;;;12.60;99.90;;;;;;5085275;28;20569;-78
2021/08/25 01:09:57;;;;;;;2.63;1.50;;;12.70;99.90;;;;;;5046506;28;20392;-80
2021/08/25 01:12:27;;;;;;;2.05;1.52;;;12.70;99.90;;;;;;5056295;28;20041;-77
2021/08/25 01:14:53;;;;;;;3.47;2.53;;;12.70;99.90;;;;;;5064782;28;20440;-78
2021/08/25 01:17:21;;;;;;;3.75;2.60;;;12.80;99.90;;;;;;5059598;28;20496;-79
2021/08/25 01:19:55;;;;;;;2.75;2.15;;;12.80;99.90;;;;;;5074172;28;20052;-81
2021/08/25 01:22:21;;;;;;;3.42;2.08;;;12.80;99.90;;;;;;5060248;28;20056;-79
2021/08/25 01:24:51;;;;;;;3.13;2.25;;;12.80;99.90;;;;;;5057209;28;20037;-78
2021/08/25 01:27:19;;;;;;;3.42;2.20;;;12.80;99.90;;;;;;5057147;28;20048;-78
2021/08/25 01:29:47;;;;;;;2.40;1.35;;;12.80;99.90;;;;;;5061869;28;20033;-79
2021/08/25 01:32:13;;;;;;;2.45;2.25;;;12.70;99.90;;;;;;5064437;28;20056;-81
2021/08/25 01:35:08;;;;;;;2.95;2.45;;;12.80;99.90;;;;;;5042969;28;20112;-80
2021/08/25 01:37:35;;;;;;;2.90;2.15;;;12.80;99.90;;;;;;5076686;28;20059;-78
2021/08/25 01:40:01;;;;;;;2.65;1.67;;;12.80;99.90;;;;;;5070973;28;20089;-78
2021/08/25 01:42:27;;;;;;;4.30;2.35;;;12.70;99.90;;;;;;5063609;28;20367;-78
2021/08/25 01:44:54;;;;;;;2.13;1.77;;;12.70;99.90;;;;;;5056728;28;20090;-78
2021/08/25 01:47:22;;;;;;;2.90;1.98;;;12.70;99.90;;;;;;5042364;28;20045;-77
2021/08/25 01:49:49;;;;;;;2.10;1.73;;;12.70;99.90;;;;;;5052648;28;20078;-77
2021/08/25 01:52:16;;;;;;;3.35;2.05;;;12.70;99.90;;;;;;5062264;28;20037;-77
2021/08/25 01:54:43;;;;;;;2.95;2.15;;;12.70;99.90;;;;;;5042335;28;20037;-78
2021/08/25 01:57:09;;;;;;;2.20;1.92;;;12.70;99.90;;;;;;5056880;28;20067;-77
2021/08/25 01:59:38;;;;;;;3.65;2.58;;;12.70;99.90;;;;;;5054742;28;20205;-80
2021/08/25 02:02:04;;;;;;;2.30;1.90;;;12.70;99.90;;;;;;5062839;28;20055;-79
2021/08/25 02:04:30;;;;;;;;;;;12.70;99.90;;;;;;5101643;28;20048;-76
2021/08/25 02:06:55;;;;;;;3.58;2.22;;;12.70;99.90;;;;;;5064795;28;19965;-79
2021/08/25 02:09:22;;;;;;;1.83;1.67;;;12.60;99.90;;;;;;5041597;28;20059;-79
2021/08/25 02:11:49;;;;;;;2.17;1.70;;;12.60;99.90;;;;;;5052586;28;20135;-80
2021/08/25 02:14:15;;;;;;;4.10;2.47;;;12.60;99.90;;;;;;5044125;28;20112;-77
2021/08/25 02:16:40;;;;;;;1.98;1.77;;;12.60;99.90;;;;;;5054511;28;20128;-77
2021/08/25 02:19:06;;;;;;;3.00;1.80;;;12.60;99.90;;;;;;5043819;28;20498;-77
2021/08/25 02:21:32;;;;;;;4.95;1.88;;;12.60;99.90;;;;;;5054848;28;20043;-78
2021/08/25 02:23:58;;;;;;;2.25;1.92;;;12.60;99.90;;;;;;5054783;28;20045;-76
2021/08/25 02:26:24;;;;;;;3.83;2.45;;;12.50;99.90;;;;;;5040957;28;20060;-79
2021/08/25 02:28:51;;;;;;;2.60;1.77;;;12.50;99.90;;;;;;5068399;28;20048;-80
2021/08/25 02:31:17;;;;;;;2.33;1.95;;;12.60;99.90;;;;;;5051578;28;20550;-79
2021/08/25 02:33:44;;;;;;;2.35;1.90;;;12.60;99.90;;;;;;5056275;28;20040;-77
2021/08/25 02:36:10;;;;;;;1.95;1.70;;;12.50;99.90;;;;;;5061670;28;20075;-80
2021/08/25 02:38:37;;;;;;;2.58;2.08;;;12.50;99.90;;;;;;5057109;28;20049;-80
2021/08/25 02:41:06;;;;;;;1.52;1.25;;;12.50;99.90;;;;;;5055497;28;20387;-77
2021/08/25 02:43:32;;;;;;;3.42;2.20;;;12.50;99.90;;;;;;5044111;28;20041;-76
2021/08/25 02:45:58;;;;;;;1.90;1.60;;;12.40;99.90;;;;;;5064641;28;20106;-78
2021/08/25 02:48:24;;;;;;;2.17;1.63;;;12.40;99.90;;;;;;5057543;28;20048;-78
2021/08/25 02:50:50;;;;;;;2.15;1.70;;;12.30;99.90;;;;;;5057781;28;20120;-78
2021/08/25 02:53:17;;;;;;;7.28;2.92;;;12.30;99.90;;;;;;5091104;28;20102;-80
2021/08/25 02:55:46;;;;;;;2.97;1.95;;;12.30;99.90;;;;;;5060065;28;20040;-79
2021/08/25 02:58:12;;;;;;;2.50;2.22;;;12.30;99.90;;;;;;5044658;28;20041;-81
2021/08/25 03:00:38;;;;;;;4.35;2.90;;;12.30;99.90;;;;;;5044287;28;20103;-80
2021/08/25 03:03:04;;;;;;;3.83;2.13;;;12.40;99.90;;;;;;5034624;28;20049;-79
2021/08/25 03:05:30;;;;;;;2.13;1.92;;;12.50;99.90;;;;;;5048670;28;20395;-77
2021/08/25 03:07:55;;;;;;;2.97;1.88;;;12.50;99.90;;;;;;5068880;28;20040;-79
2021/08/25 03:10:21;;;;;;;2.88;1.85;;;12.50;99.90;;;;;;5055424;28;20104;-79
2021/08/25 03:12:47;;;;;;;2.20;1.77;;;12.50;99.90;;;;;;5052643;28;20049;-79
2021/08/25 03:15:13;;;;;;;4.85;1.98;;;12.50;99.90;;;;;;5044957;28;20045;-77
2021/08/25 03:17:39;;;;;;;2.75;2.13;;;12.50;99.90;;;;;;5034260;28;20048;-78
2021/08/25 03:20:07;;;;;;;3.65;2.45;;;12.50;99.90;;;;;;5045763;28;20041;-79
2021/08/25 03:22:33;;;;;;;3.00;2.10;;;12.50;99.90;;;;;;5061469;28;20076;-78
2021/08/25 03:24:59;;;;;;;3.20;2.35;;;12.50;99.90;;;;;;5044607;28;20079;-76
2021/08/25 03:27:24;;;;;;;3.45;2.40;;;12.50;99.90;;;;;;5057158;28;20040;-79
2021/08/25 03:29:50;;;;;;;3.25;2.60;;;12.50;99.90;;;;;;5058142;28;20037;-76
2021/08/25 03:32:16;;;;;;;4.78;2.55;;;12.60;99.90;;;;;;5056022;28;20056;-79
2021/08/25 03:34:41;;;;;;;4.03;2.30;;;12.50;99.90;;;;;;5058460;28;20094;-79
2021/08/25 03:37:07;;;;;;;2.10;1.83;;;12.50;99.90;;;;;;5064762;28;20036;-78
2021/08/25 03:39:33;;;;;;;2.33;1.70;;;12.50;99.90;;;;;;5054023;28;20116;-78
2021/08/25 03:41:59;;;;;;;4.32;2.35;;;12.50;99.90;;;;;;5062099;28;20398;-80
2021/08/25 03:44:24;;;;;;;3.80;2.05;;;12.40;99.90;;;;;;5042555;28;20048;-77
2021/08/25 03:46:50;;;;;;;3.10;1.98;;;12.40;99.90;;;;;;5053935;28;20116;-79
2021/08/25 03:49:16;;;;;;;6.30;2.80;;;12.30;99.90;;;;;;5039026;28;20056;-80
2021/08/25 03:51:42;;;;;;;3.80;2.33;;;12.30;99.90;;;;;;5056121;28;20128;-78
2021/08/25 03:54:08;;;;;;;;;;;12.20;99.90;;;;;;5043131;28;20041;-79
2021/08/25 03:56:33;;;;;;;2.22;1.92;;;12.10;99.90;;;;;;5034466;28;19962;-80
2021/08/25 03:58:59;;;;;;;2.13;1.73;;;12.10;99.90;;;;;;5051145;28;20075;-81
2021/08/25 04:01:25;;;;;;;3.50;2.33;;;12.00;99.90;;;;;;5034645;28;20425;-78
2021/08/25 04:03:51;;;;;;;2.83;2.10;;;12.00;99.90;;;;;;5048360;28;20084;-77
2021/08/25 04:06:16;;;;;;;17.35;3.53;;;11.90;99.90;;;;;;5051097;28;20045;-77
2021/08/25 04:08:42;;;;;;;3.33;2.30;;;11.90;99.90;;;;;;5052428;28;20090;-80
2021/08/25 04:11:08;;;;;;;3.83;2.33;;;11.90;99.90;;;;;;5056745;28;20098;-76
2021/08/25 04:13:34;;;;;;;3.25;2.20;;;11.80;99.90;;;;;;5029926;28;20123;-78
2021/08/25 04:15:59;;;;;;;3.05;2.35;;;11.70;99.90;;;;;;5053523;28;20037;-77
2021/08/25 04:18:25;;;;;;;4.07;2.33;;;11.70;99.90;;;;;;5040512;28;20048;-79
2021/08/25 04:20:51;;;;;;;3.90;2.33;;;11.70;99.90;;;;;;5024904;28;20051;-78
2021/08/25 04:23:18;;;;;;;4.55;1.92;;;11.70;99.90;;;;;;5066876;28;20434;-79
2021/08/25 04:25:44;;;;;;;2.13;1.88;;;11.70;99.90;;;;;;5044483;28;20534;-79
2021/08/25 04:28:10;;;;;;;;;;;11.60;99.90;;;;;;5063972;28;20087;-76
2021/08/25 04:30:40;;;;;;;1.35;1.25;;;11.70;99.90;;;;;;5046515;28;19917;-79
2021/08/25 04:33:06;;;;;;;3.30;2.55;;;11.70;99.90;;;;;;5050214;28;20057;-80
2021/08/25 04:35:32;;;;;;;2.80;2.17;;;11.70;99.90;;;;;;5068928;28;20360;-76
2021/08/25 04:37:58;;;;;;;2.65;2.45;;;11.70;99.90;;;;;;5058143;28;20069;-79
2021/08/25 04:40:24;;;;;;;4.20;2.30;;;11.80;99.90;;;;;;5051587;28;20493;-78
2021/08/25 04:42:49;;;;;;;2.03;1.80;;;11.90;99.90;;;;;;5061523;28;20037;-80
2021/08/25 04:45:15;;;;;;;5.35;2.00;;;12.00;99.90;;;;;;5068125;28;20048;-79
2021/08/25 04:47:41;;;;;;;3.67;2.00;;;12.10;99.90;;;;;;5051488;28;20402;-78
2021/08/25 04:50:07;;;;;;;5.93;2.08;;;12.20;99.90;;;;;;5057083;28;20062;-78
2021/08/25 04:52:32;;;;;;;;;;;12.30;99.90;;;;;;5066956;28;20080;-79
2021/08/25 04:54:58;;;;;;;4.28;2.08;;;12.40;99.90;;;;;;5058481;28;20390;-77
2021/08/25 04:57:24;;;;;;;3.97;1.85;;;12.50;99.90;;;;;;5042220;28;20034;-78
2021/08/25 04:59:49;;;;;;;5.18;2.33;;;12.60;99.90;;;;;;5040409;28;20112;-82
2021/08/25 05:02:15;;;;;;;2.15;1.88;;;12.60;99.90;;;;;;5033804;28;20090;-82
2021/08/25 05:04:41;;;;;;;6.22;3.00;;;12.70;99.90;;;;;;5033229;28;20099;-79
2021/08/25 05:07:06;;;;;;;2.25;1.85;;;12.80;99.90;;;;;;5051317;28;20033;-77
2021/08/25 05:09:32;;;;;;;4.75;1.90;;;12.80;99.90;;;;;;5061906;28;20039;-77
2021/08/25 05:11:58;;;;;;;11.20;2.63;;;12.90;99.90;;;;;;5056038;28;20045;-80
2021/08/25 05:14:24;;;;;;;2.70;2.15;;;12.90;99.90;;;;;;5038553;28;20430;-77
2021/08/25 05:16:49;;;;;;;3.05;1.83;;;13.00;99.90;;;;;;5059751;28;20059;-78
2021/08/25 05:19:15;;;;;;;2.10;1.90;;;13.10;99.90;;;;;;5050551;28;20048;-80
2021/08/25 05:21:41;;;;;;;1.73;1.33;;;13.10;99.90;;;;;;5049488;28;20442;-77
2021/08/25 05:24:06;;;;;;;5.10;2.42;;;13.10;99.90;;;;;;5068640;28;20052;-79
2021/08/25 05:26:32;;;;;;;3.53;2.45;;;13.20;99.90;;;;;;5075495;28;20435;-78
2021/08/25 05:28:58;;;;;;;3.20;2.53;;;13.20;99.90;;;;;;5061860;28;20037;-81
2021/08/25 05:31:24;;;;;;;5.07;2.50;;;13.30;99.90;;;;;;5053200;28;20087;-81
2021/08/25 05:33:50;;;;;;;3.75;2.35;;;13.30;99.90;;;;;;5052121;28;20126;-78
2021/08/25 05:36:16;;;;;;;2.42;1.95;;;13.30;99.90;;;;;;5055474;28;20090;-78
2021/08/25 05:38:42;;;;;;;;;;;13.30;99.90;;;;;;5036826;28;20068;-80
2021/08/25 05:41:07;;;;;;;4.03;2.70;;;13.30;99.90;;;;;;5063537;28;20039;-78
2021/08/25 05:43:33;;;;;;;2.35;2.15;;;13.40;99.90;;;;;;5049568;28;20399;-80
2021/08/25 05:45:59;;;;;;;;;;;13.40;99.90;;;;;;5050874;28;20044;-79
2021/08/25 05:48:25;;;;;;;2.38;1.35;;;13.50;99.90;;;;;;5083098;28;19916;-81
2021/08/25 05:50:51;;;;;;;3.30;2.13;;;13.50;99.90;;;;;;5049303;28;20298;-79
2021/08/25 05:53:16;;;;;;;;;;;13.60;99.90;;;;;;5029076;28;20179;-78
2021/08/25 05:55:42;;;;;;;3.92;3.05;;;13.60;99.90;;;;;;5046824;28;19956;-80
2021/08/25 05:58:08;;;;;;;2.03;1.70;;;13.70;99.90;;;;;;5049899;28;20037;-80
2021/08/25 06:00:34;;;;;;;3.30;2.17;;;13.80;99.90;;;;;;5053804;28;20411;-78
2021/08/25 06:03:00;;;;;;;2.75;2.50;;;13.80;99.90;;;;;;5043950;28;20049;-80
2021/08/25 06:05:26;;;;;;;4.70;2.25;;;13.90;99.90;;;;;;5053679;28;20153;-80
2021/08/25 06:07:53;;;;;;;3.63;1.95;;;14.00;99.90;;;;;;5075374;28;20045;-81
2021/08/25 06:10:19;;;;;;;2.60;2.22;;;14.10;99.90;;;;;;5056708;28;20406;-80
2021/08/25 06:12:44;;;;;;;;;;;14.20;99.90;;;;;;5050801;28;20053;-81
2021/08/25 06:15:10;;;;;;;5.07;2.70;;;14.30;99.90;;;;;;5047868;28;19916;-80
2021/08/25 06:17:36;;;;;;;3.03;2.22;;;14.40;99.90;;;;;;5042731;28;20068;-81
2021/08/25 06:20:03;;;;;;;5.30;2.80;;;14.40;99.90;;;;;;5068629;28;20067;-79
2021/08/25 06:22:29;;;;;;;6.35;3.38;;;14.50;99.90;;;;;;5050615;28;20045;-87
2021/08/25 06:24:56;;;;;;;2.17;1.80;;;14.60;99.90;;;;;;5051361;28;20060;-84
2021/08/25 06:27:25;;;;;;;4.28;2.63;;;14.70;99.90;;;;;;5052236;28;20590;-85
2021/08/25 06:29:53;;;;;;;5.78;2.28;;;14.70;99.90;;;;;;5040955;28;20052;-84
2021/08/25 06:32:19;;;;;;;4.60;2.42;;;14.80;99.90;;;;;;5075087;28;20109;-82
2021/08/25 06:34:46;;;;;;;2.40;1.80;;;14.90;99.90;;;;;;5042155;28;20049;-81
2021/08/25 06:37:11;;;;;;;2.80;2.13;;;15.00;99.90;;;;;;5060118;28;20048;-82
2021/08/25 06:39:37;;;;;;;;;;;15.10;99.90;;;;;;5040147;28;20048;-81
2021/08/25 06:42:03;;;;;;;3.38;2.20;;;15.20;99.90;;;;;;5045517;28;19963;-79
2021/08/25 06:44:28;;;;;;;;;;;15.30;99.90;;;;;;5062689;28;20037;-83
2021/08/25 06:46:54;;;;;;;6.63;2.30;;;15.40;99.90;;;;;;5066990;28;19921;-83
2021/08/25 06:49:20;;;;;;;4.47;2.50;;;15.50;99.90;;;;;;5058829;28;20042;-83
2021/08/25 06:51:46;;;;;;;;;;;15.60;99.90;;;;;;5047577;28;20080;-84
2021/08/25 06:54:12;;;;;;;6.70;2.85;;;15.70;99.90;;;;;;5095563;28;19924;-83
2021/08/25 06:56:38;;;;;;;6.05;2.80;;;15.80;99.90;;;;;;5051081;28;20045;-82
2021/08/25 06:59:03;;;;;;;;;;;15.90;99.90;;;;;;5060949;28;20444;-85
2021/08/25 07:01:29;;;;;;;4.22;1.75;;;16.00;99.90;;;;;;5067002;28;19923;-80
2021/08/25 07:03:55;;;;;;;;;;;16.00;99.90;;;;;;5050177;28;20151;-81
2021/08/25 07:06:21;;;;;;;2.78;2.33;;;16.10;99.90;;;;;;5049763;28;20354;-79
2021/08/25 07:08:47;;;;;;;10.10;2.67;;;16.20;99.90;;;;;;5066659;28;20044;-83
2021/08/25 07:11:12;;;;;;;;;;;16.30;99.90;;;;;;5071758;28;20037;-81
2021/08/25 07:13:38;;;;;;;2.97;1.60;;;16.30;99.90;;;;;;5056353;28;19944;-83
2021/08/25 07:16:07;;;;;;;2.85;2.08;;;16.40;99.90;;;;;;5039517;28;20125;-82
2021/08/25 07:18:33;;;;;;;1.65;1.20;;;16.50;99.90;;;;;;5080757;28;20044;-79
2021/08/25 07:21:07;;;;;;;2.10;1.35;;;16.60;99.90;;;;;;5061227;28;20066;-79
2021/08/25 07:23:32;;;;;;;2.97;1.70;;;16.70;99.90;;;;;;5025654;28;20044;-83
2021/08/25 07:25:58;;;;;;;2.65;1.73;;;16.70;99.90;;;;;;5049580;28;20074;-86
2021/08/25 07:28:24;;;;;;;;;;;16.80;99.90;;;;;;5071191;28;20541;-80
2021/08/25 07:30:49;;;;;;;1.80;1.25;;;16.90;99.90;;;;;;5052851;28;19920;-81
2021/08/25 07:33:16;;;;;;;2.20;1.55;;;17.00;99.90;;;;;;5049432;28;20057;-84
2021/08/25 07:35:46;;;;;;;2.50;1.60;;;17.10;99.90;;;;;;5044319;28;20045;-80
2021/08/25 07:38:12;;;;;;;1.98;1.75;;;17.20;99.90;;;;;;5072314;28;20045;-81
2021/08/25 07:40:39;;;;;;;2.85;2.22;;;17.30;99.90;;;;;;5061826;28;20384;-81
2021/08/25 07:43:04;;;;;;;;;;;17.40;99.90;;;;;;5048126;28;20040;-82
2021/08/25 07:45:32;;;;;;;2.28;1.67;;;17.50;99.90;;;;;;5042901;28;19921;-83
2021/08/25 07:47:58;;;;;;;4.55;2.50;;;17.60;99.90;;;;;;5047950;28;20055;-81
2021/08/25 07:50:24;;;;;;;2.85;1.83;;;17.70;99.90;;;;;;5033372;28;20033;-84
2021/08/25 07:52:49;;;;;;;;;;;17.80;99.90;;;;;;5051229;28;20044;-82
2021/08/25 07:55:15;;;;;;;1.13;1.02;;;17.80;99.90;;;;;;5050011;28;19921;-80
2021/08/25 07:57:40;;;;;;;;;;;17.80;99.90;;;;;;5013156;28;20046;-80
2021/08/25 08:00:07;;;;;;;0.50;0.50;;;17.80;99.90;;;;;;5024222;28;20433;-80
2021/08/25 08:02:35;;;;;;;0.70;0.60;;;18.00;99.90;;;;;;5049022;28;20045;-83
2021/08/25 08:05:03;;;;;;;0.70;0.70;;;18.30;99.90;;;;;;5032668;28;20132;-81
2021/08/25 08:07:29;;;;;;;0.50;0.50;;;18.50;99.90;;;;;;5060633;28;20045;-80
2021/08/25 08:09:55;;;;;;;0.88;0.60;;;18.60;99.90;;;;;;5040363;28;20047;-81
2021/08/25 08:12:21;;;;;;;;;;;18.50;99.90;;;;;;5033901;28;20049;-84
2021/08/25 08:14:47;;;;;;;0.40;0.40;;;18.30;99.90;;;;;;5050615;28;19917;-82
2021/08/25 08:17:13;;;;;;;;;;;18.00;99.90;;;;;;5048923;28;20044;-79
2021/08/25 08:19:39;;;;;;;0.60;0.60;;;17.90;99.90;;;;;;5047793;28;19927;-81
2021/08/25 08:22:04;;;;;;;;;;;18.10;99.90;;;;;;5050113;28;20127;-81
2021/08/25 08:24:30;;;;;;;0.40;0.40;;;18.20;99.90;;;;;;5049668;28;19917;-81
2021/08/25 08:26:58;;;;;;;0.57;0.52;;;18.30;99.90;;;;;;5049670;28;20052;-81
2021/08/25 08:29:24;;;;;;;0.30;0.30;;;18.40;99.90;;;;;;5032889;28;20437;-82
2021/08/25 08:31:50;;;;;;;;;;;18.30;99.90;;;;;;5041262;28;20057;-84
2021/08/25 08:34:15;;;;;;;0.98;0.63;;;18.40;99.90;;;;;;5073842;28;19921;-76
2021/08/25 08:36:41;;;;;;;;;;;18.70;99.90;;;;;;5048411;28;20044;-77
2021/08/25 08:39:07;;;;;;;2.65;0.82;;;19.00;99.90;;;;;;5035193;28;19928;-81
2021/08/25 08:41:32;;;;;;;;;;;19.10;99.90;;;;;;5051886;28;20044;-81
2021/08/25 08:43:58;;;;;;;1.27;0.40;;;18.90;99.90;;;;;;5053772;28;20349;-81
2021/08/25 08:46:24;;;;;;;0.45;0.40;;;18.70;99.90;;;;;;5049668;28;20044;-84
2021/08/25 08:48:51;;;;;;;;;;;18.50;99.90;;;;;;5050093;28;20406;-82
2021/08/25 08:51:24;;;;;;;;;;;18.50;99.90;;;;;;5044132;28;19917;-82
2021/08/25 08:53:51;;;;;;;0.38;0.38;;;18.40;99.90;;;;;;5035008;28;19932;-83
2021/08/25 08:56:18;;;;;;;1.25;0.60;;;18.40;99.90;;;;;;5047376;28;20045;-82
2021/08/25 08:58:44;;;;;;;0.52;0.52;;;18.50;99.90;;;;;;5049144;28;20505;-82
2021/08/25 09:01:10;;;;;;;0.52;0.52;;;18.70;99.90;;;;;;5049305;28;20045;-83
2021/08/25 09:03:40;;;;;;;2.35;0.52;;;18.90;99.90;;;;;;5048031;28;20077;-86
2021/08/25 09:06:07;;;;;;;0.40;0.40;;;19.10;99.90;;;;;;5026452;28;20052;-83
2021/08/25 09:08:39;;;;;;;1.45;0.70;;;19.20;99.90;;;;;;5025623;28;20041;-83
2021/08/25 09:11:12;;;;;;;0.55;0.55;;;19.20;99.90;;;;;;5055867;28;20381;-83
2021/08/25 09:13:46;;;;;;;0.63;0.63;;;19.30;99.90;;;;;;5051322;28;20057;-76
2021/08/25 09:16:27;;;;;;;0.40;0.40;;;19.40;99.90;;;;;;5039488;28;20048;-82
2021/08/25 09:19:07;;;;;;;0.60;0.60;;;19.40;99.90;;;;;;5048326;28;20123;-81
2021/08/25 09:21:37;;;;;;;0.70;0.60;;;19.40;99.90;;;;;;5035185;28;20148;-83
2021/08/25 09:24:05;;;;;;;0.40;0.40;;;19.40;99.90;;;;;;5053317;28;20029;-80
2021/08/25 09:26:34;;;;;;;0.30;0.30;;;19.40;99.90;;;;;;5096227;28;20049;-82
2021/08/25 09:29:17;;;;;;;0.90;0.40;;;19.50;99.90;;;;;;5029782;28;20551;-81
2021/08/25 09:31:47;;;;;;;0.40;0.40;;;19.50;99.90;;;;;;5032755;28;20436;-80
2021/08/25 09:34:27;;;;;;;4.32;0.47;;;19.40;99.90;;;;;;5069877;28;20048;-81
2021/08/25 09:37:09;;;;;;;0.30;0.30;;;19.40;99.90;;;;;;5052795;28;20036;-79
2021/08/25 09:39:40;;;;;;;0.30;0.30;;;19.40;99.90;;;;;;5042505;28;20037;-81
2021/08/25 09:42:06;;;;;;;0.35;0.35;;;19.40;99.90;;;;;;5058720;28;20109;-82
2021/08/25 09:44:31;;;;;;;0.60;0.60;;;19.30;99.90;;;;;;5050106;28;20044;-81
2021/08/25 09:46:57;;;;;;;0.43;0.40;;;19.20;99.90;;;;;;5065395;28;20044;-80
2021/08/25 09:49:23;;;;;;;;;;;19.00;99.90;;;;;;5070039;28;20053;-80
2021/08/25 09:51:50;;;;;;;0.50;0.50;;;18.90;99.90;;;;;;5096631;28;19917;-81
2021/08/25 09:54:18;;;;;;;0.45;0.40;;;18.90;99.90;;;;;;5056247;28;20052;-80
2021/08/25 09:56:44;;;;;;;0.63;0.60;;;18.90;99.90;;;;;;5061040;28;20068;-77
2021/08/25 09:59:11;;;;;;;;;;;18.80;99.90;;;;;;5045446;28;20513;-79
2021/08/25 10:01:38;;;;;;;0.85;0.70;;;18.90;99.90;;;;;;5086453;28;19999;-82
2021/08/25 10:04:06;;;;;;;0.50;0.50;;;19.00;99.90;;;;;;5029474;28;20045;-81
2021/08/25 10:06:35;;;;;;;0.50;0.50;;;19.00;99.90;;;;;;5051715;28;20044;-83
2021/08/25 10:09:03;;;;;;;0.68;0.52;;;19.10;99.90;;;;;;5057511;28;20083;-78
2021/08/25 10:11:30;;;;;;;1.50;0.80;;;19.20;99.90;;;;;;5054231;28;20532;-81
2021/08/25 10:13:57;;;;;;;0.50;0.50;;;19.30;99.90;;;;;;5041257;28;20048;-80
2021/08/25 10:16:36;;;;;;;0.45;0.45;;;19.30;99.90;;;;;;5073450;28;20045;-83
2021/08/25 10:19:23;;;;;;;1.15;0.77;;;19.30;99.90;;;;;;5047727;28;20032;-84
2021/08/25 10:21:50;;;;;;;0.43;0.43;;;19.20;99.90;;;;;;5031551;28;20119;-81
2021/08/25 10:24:16;;;;;;;0.40;0.40;;;19.20;99.90;;;;;;5056567;28;20049;-81
2021/08/25 10:27:06;;;;;;;0.30;0.30;;;19.30;99.90;;;;;;5036102;28;20049;-84
2021/08/25 10:29:32;;;;;;;0.82;0.40;;;19.30;99.90;;;;;;5057859;28;20049;-79
2021/08/25 10:31:58;;;;;;;0.40;0.40;;;19.40;99.90;;;;;;5056689;28;20064;-80
2021/08/25 10:34:28;;;;;;;0.30;0.30;;;19.70;99.90;;;;;;5054782;28;20091;-79
2021/08/25 10:37:12;;;;;;;0.73;0.73;;;19.90;99.90;;;;;;5054357;28;20045;-79
2021/08/25 10:39:40;;;;;;;0.30;0.30;;;19.90;99.90;;;;;;5056007;28;20441;-82
2021/08/25 10:42:08;;;;;;;0.30;0.30;;;19.70;99.90;;;;;;5048423;28;20085;-82
2021/08/25 10:44:39;;;;;;;0.55;0.43;;;19.70;99.90;;;;;;5053119;28;20036;-82
2021/08/25 10:47:14;;;;;;;0.82;0.50;;;19.80;99.90;;;;;;5052017;28;20045;-79
2021/08/25 10:49:46;;;;;;;0.28;0.28;;;20.10;99.90;;;;;;5061086;28;20128;-81
2021/08/25 10:52:15;;;;;;;0.50;0.50;;;20.10;99.90;;;;;;5039423;28;20148;-79
2021/08/25 10:54:42;;;;;;;0.30;0.30;;;20.20;99.90;;;;;;5046989;28;20438;-80
2021/08/25 10:57:13;;;;;;;0.28;0.28;;;20.30;99.90;;;;;;5055824;28;20049;-83
2021/08/25 10:59:40;;;;;;;0.43;0.43;;;20.20;99.90;;;;;;5052443;28;20037;-82
2021/08/25 11:02:06;;;;;;;0.50;0.50;;;20.10;99.90;;;;;;5057552;28;20765;-79
2021/08/25 11:04:33;;;;;;;0.38;0.38;;;19.80;99.90;;;;;;5060165;28;20037;-81
2021/08/25 11:07:11;;;;;;;0.50;0.50;;;19.60;99.90;;;;;;5056858;28;20083;-81
2021/08/25 11:09:40;;;;;;;0.40;0.40;;;19.30;99.90;;;;;;5063968;28;20521;-81
2021/08/25 11:12:10;;;;;;;0.38;0.38;;;19.10;99.90;;;;;;5053063;28;20457;-81
2021/08/25 11:14:47;;;;;;;0.40;0.40;;;18.90;99.90;;;;;;5054894;28;20095;-81
2021/08/25 11:17:21;;;;;;;0.68;0.50;;;18.60;99.90;;;;;;5046752;28;20589;-81
2021/08/25 11:19:53;;;;;;;0.40;0.40;;;18.50;99.90;;;;;;5057906;28;20079;-85
2021/08/25 11:22:29;;;;;;;0.50;0.50;;;18.40;99.90;;;;;;5051629;28;20044;-82
2021/08/25 11:24:55;;;;;;;0.70;0.70;;;18.40;99.90;;;;;;5056371;28;20056;-84
2021/08/25 11:27:33;;;;;;;0.63;0.47;;;18.50;99.90;;;;;;5057735;28;20040;-82
2021/08/25 11:30:07;;;;;;;0.47;0.47;;;18.50;99.90;;;;;;5049842;28;20042;-84
2021/08/25 11:32:44;;;;;;;0.73;0.63;;;18.40;99.90;;;;;;5066538;28;20065;-82
2021/08/25 11:35:12;;;;;;;0.45;0.45;;;18.40;99.90;;;;;;5059819;28;20048;-85
2021/08/25 11:37:42;;;;;;;0.45;0.43;;;18.30;99.90;;;;;;5035205;28;20040;-84
2021/08/25 11:40:08;;;;;;;0.68;0.65;;;18.30;99.90;;;;;;5062621;28;20116;-83
2021/08/25 11:42:34;;;;;;;;;;;18.40;99.90;;;;;;5029713;28;20052;-87
2021/08/25 11:45:12;;;;;;;0.32;0.32;;;18.40;99.90;;;;;;5033474;28;19999;-84
2021/08/25 11:47:48;;;;;;;3.95;0.75;;;18.50;99.90;;;;;;5049290;28;20045;-84
2021/08/25 11:50:15;;;;;;;0.70;0.70;;;18.60;99.90;;;;;;5059751;28;20521;-85
2021/08/25 11:52:41;;;;;;;1.02;0.80;;;18.70;99.90;;;;;;5040751;28;20124;-84
2021/08/25 11:55:06;;;;;;;;;;;18.80;99.90;;;;;;5081795;28;20187;-85
2021/08/25 11:57:49;;;;;;;0.32;0.32;;;18.80;99.90;;;;;;5070405;28;19916;-84
2021/08/25 12:00:17;;;;;;;0.98;0.70;;;18.70;99.90;;;;;;5049788;28;20107;-86
2021/08/25 12:03:12;;;;;;;0.30;0.30;;;18.70;99.90;;;;;;5048816;28;20121;-83
2021/08/25 12:05:53;;;;;;;0.65;0.55;;;18.70;99.90;;;;;;5053360;28;20140;-85
2021/08/25 12:08:19;;;;;;;0.50;0.50;;;18.90;99.90;;;;;;5036139;28;20395;-82
2021/08/25 12:10:44;;;;;;;;;;;18.90;99.90;;;;;;5058214;28;20048;-85
2021/08/25 12:13:12;;;;;;;0.70;0.70;;;18.90;99.90;;;;;;5054560;28;19920;-88
2021/08/25 12:15:51;;;;;;;1.20;0.70;;;19.00;99.90;;;;;;5030878;28;20428;-85
2021/08/25 12:18:20;;;;;;;1.50;0.75;;;19.10;99.90;;;;;;5040596;28;20489;-85
2021/08/25 12:20:48;;;;;;;1.23;0.70;;;19.10;99.90;;;;;;5059993;28;20102;-82
2021/08/25 12:23:17;;;;;;;1.40;0.80;;;19.10;99.90;;;;;;5042226;28;20100;-87
2021/08/25 12:25:49;;;;;;;0.40;0.40;;;18.90;99.90;;;;;;5057655;28;20087;-84
2021/08/25 12:28:28;;;;;;;1.60;1.00;;;18.70;99.90;;;;;;5036297;28;20048;-83
2021/08/25 12:30:54;;;;;;;2.25;0.80;;;18.50;99.90;;;;;;5050365;28;20702;-84
2021/08/25 12:33:28;;;;;;;;;;;18.50;99.90;;;;;;5049738;28;20128;-84
2021/08/25 12:35:53;;;;;;;0.90;0.77;;;18.50;99.90;;;;;;5093485;28;19917;-83
2021/08/25 12:38:28;;;;;;;;;;;18.60;99.90;;;;;;5049846;28;20045;-84
2021/08/25 12:40:54;;;;;;;0.80;0.60;;;18.70;99.90;;;;;;5105552;28;19920;-83
2021/08/25 12:43:19;;;;;;;;;;;18.80;99.90;;;;;;5073371;28;20040;-85
2021/08/25 12:45:45;;;;;;;1.33;0.82;;;18.90;99.90;;;;;;5072961;28;19939;-83
2021/08/25 12:48:10;;;;;;;;;;;18.90;99.90;;;;;;5002751;28;20048;-85
2021/08/25 12:50:36;;;;;;;0.75;0.70;;;18.90;99.90;;;;;;5050668;28;20015;-85
2021/08/25 12:53:02;;;;;;;;;;;18.90;99.90;;;;;;5068146;28;20041;-85
2021/08/25 12:55:27;;;;;;;0.55;0.55;;;18.80;99.90;;;;;;5053279;28;19920;-84
2021/08/25 12:57:53;;;;;;;;;;;18.70;99.90;;;;;;5016723;28;20040;-84